sensor_id;sensor_type;location;lat;lon;timestamp;P1;durP1;ratioP1;P2;durP2;ratioP2
20857;SDS011;10589;53.636;10.012;2023-03-11T04:45:14;21.77;;;12.57;;
20857;SDS011;10589;53.636;10.012;2023-03-11T04:47:46;18.43;;;12.00;;
20857;SDS011;10589;53.636;10.012;2023-03-11T04:50:12;23.30;;;13.17;;
20857;SDS011;10589;53.636;10.012;2023-03-11T04:52:38;18.53;;;12.40;;
20857;SDS011;10589;53.636;10.012;2023-03-11T04:55:05;22.20;;;12.47;;
20857;SDS011;10589;53.636;10.012;2023-03-11T04:57:31;21.80;;;13.67;;
20857;SDS011;10589;53.636;10.012;2023-03-11T04:59:57;19.87;;;12.80;;
20857;SDS011;10589;53.636;10.012;2023-03-11T05:02:22;24.63;;;13.60;;
20857;SDS011;10589;53.636;10.012;2023-03-11T05:04:48;20.63;;;12.70;;
20857;SDS011;10589;53.636;10.012;2023-03-11T05:07:13;22.47;;;13.20;;
20857;SDS011;10589;53.636;10.012;2023-03-11T05:09:39;19.73;;;13.30;;
20857;SDS011;10589;53.636;10.012;2023-03-11T05:12:05;24.00;;;13.20;;
20857;SDS011;10589;53.636;10.012;2023-03-11T05:14:30;21.60;;;12.77;;
20857;SDS011;10589;53.636;10.012;2023-03-11T05:16:56;22.40;;;12.53;;
20857;SDS011;10589;53.636;10.012;2023-03-11T05:19:22;22.60;;;12.90;;
20857;SDS011;10589;53.636;10.012;2023-03-11T05:21:56;21.97;;;12.83;;
20857;SDS011;10589;53.636;10.012;2023-03-11T05:24:23;17.63;;;12.37;;
20857;SDS011;10589;53.636;10.012;2023-03-11T05:26:51;25.23;;;15.03;;
20857;SDS011;10589;53.636;10.012;2023-03-11T05:29:17;18.60;;;12.13;;
20857;SDS011;10589;53.636;10.012;2023-03-11T05:31:43;24.33;;;13.07;;
20857;SDS011;10589;53.636;10.012;2023-03-11T05:34:10;21.20;;;13.23;;
20857;SDS011;10589;53.636;10.012;2023-03-11T05:36:36;20.73;;;12.87;;
20857;SDS011;10589;53.636;10.012;2023-03-11T05:39:02;20.33;;;13.07;;
20857;SDS011;10589;53.636;10.012;2023-03-11T05:41:28;24.93;;;13.17;;
20857;SDS011;10589;53.636;10.012;2023-03-11T05:43:53;20.37;;;12.90;;
20857;SDS011;10589;53.636;10.012;2023-03-11T05:46:19;22.63;;;13.13;;
20857;SDS011;10589;53.636;10.012;2023-03-11T05:48:45;19.97;;;12.90;;
20857;SDS011;10589;53.636;10.012;2023-03-11T05:51:11;19.77;;;12.10;;
20857;SDS011;10589;53.636;10.012;2023-03-11T05:53:37;21.80;;;12.10;;
20857;SDS011;10589;53.636;10.012;2023-03-11T05:56:03;18.47;;;11.70;;
20857;SDS011;10589;53.636;10.012;2023-03-11T05:58:29;21.10;;;12.53;;
20857;SDS011;10589;53.636;10.012;2023-03-11T06:00:56;20.17;;;12.70;;
20857;SDS011;10589;53.636;10.012;2023-03-11T06:03:24;20.67;;;12.10;;
20857;SDS011;10589;53.636;10.012;2023-03-11T06:05:49;20.67;;;12.37;;
20857;SDS011;10589;53.636;10.012;2023-03-11T06:08:16;21.00;;;11.87;;
20857;SDS011;10589;53.636;10.012;2023-03-11T06:10:42;20.20;;;12.57;;
20857;SDS011;10589;53.636;10.012;2023-03-11T06:13:08;21.43;;;12.07;;
20857;SDS011;10589;53.636;10.012;2023-03-11T06:15:34;17.37;;;11.97;;
20857;SDS011;10589;53.636;10.012;2023-03-11T06:18:01;20.07;;;12.03;;
20857;SDS011;10589;53.636;10.012;2023-03-11T06:20:27;21.13;;;12.83;;
20857;SDS011;10589;53.636;10.012;2023-03-11T06:22:53;20.50;;;11.33;;
20857;SDS011;10589;53.636;10.012;2023-03-11T06:25:18;24.10;;;13.40;;
20857;SDS011;10589;53.636;10.012;2023-03-11T06:27:47;19.07;;;11.83;;
20857;SDS011;10589;53.636;10.012;2023-03-11T06:30:15;24.10;;;11.47;;
20857;SDS011;10589;53.636;10.012;2023-03-11T06:32:47;19.10;;;11.30;;
20857;SDS011;10589;53.636;10.012;2023-03-11T06:35:13;20.40;;;12.10;;
20857;SDS011;10589;53.636;10.012;2023-03-11T06:37:39;22.50;;;12.17;;
20857;SDS011;10589;53.636;10.012;2023-03-11T06:40:06;22.33;;;12.43;;
20857;SDS011;10589;53.636;10.012;2023-03-11T06:42:33;20.37;;;11.73;;
20857;SDS011;10589;53.636;10.012;2023-03-11T06:44:59;20.70;;;12.17;;
20857;SDS011;10589;53.636;10.012;2023-03-11T06:47:25;22.13;;;12.70;;
20857;SDS011;10589;53.636;10.012;2023-03-11T06:49:52;21.70;;;12.93;;
20857;SDS011;10589;53.636;10.012;2023-03-11T06:52:18;21.00;;;12.90;;
20857;SDS011;10589;53.636;10.012;2023-03-11T06:54:44;22.40;;;13.23;;
20857;SDS011;10589;53.636;10.012;2023-03-11T06:57:10;23.60;;;13.10;;
20857;SDS011;10589;53.636;10.012;2023-03-11T06:59:36;22.50;;;12.70;;
20857;SDS011;10589;53.636;10.012;2023-03-11T07:02:04;20.63;;;12.67;;
20857;SDS011;10589;53.636;10.012;2023-03-11T07:04:31;21.13;;;12.93;;
20857;SDS011;10589;53.636;10.012;2023-03-11T07:06:57;19.47;;;12.07;;
20857;SDS011;10589;53.636;10.012;2023-03-11T07:09:23;22.77;;;13.13;;
20857;SDS011;10589;53.636;10.012;2023-03-11T07:11:50;22.87;;;12.30;;
20857;SDS011;10589;53.636;10.012;2023-03-11T07:14:16;19.33;;;11.60;;
20857;SDS011;10589;53.636;10.012;2023-03-11T07:16:42;23.33;;;13.77;;
20857;SDS011;10589;53.636;10.012;2023-03-11T07:19:10;27.03;;;13.80;;
20857;SDS011;10589;53.636;10.012;2023-03-11T07:21:36;25.73;;;12.87;;
20857;SDS011;10589;53.636;10.012;2023-03-11T07:24:03;24.67;;;13.47;;
20857;SDS011;10589;53.636;10.012;2023-03-11T07:26:30;20.70;;;12.50;;
20857;SDS011;10589;53.636;10.012;2023-03-11T07:28:56;24.93;;;13.30;;
20857;SDS011;10589;53.636;10.012;2023-03-11T07:31:27;23.90;;;13.63;;
20857;SDS011;10589;53.636;10.012;2023-03-11T07:33:56;23.43;;;13.43;;
20857;SDS011;10589;53.636;10.012;2023-03-11T07:36:23;23.83;;;13.00;;
20857;SDS011;10589;53.636;10.012;2023-03-11T07:38:57;21.00;;;12.10;;
20857;SDS011;10589;53.636;10.012;2023-03-11T07:41:27;20.83;;;12.00;;
20857;SDS011;10589;53.636;10.012;2023-03-11T07:43:54;20.67;;;12.13;;
20857;SDS011;10589;53.636;10.012;2023-03-11T07:46:22;22.63;;;11.87;;
20857;SDS011;10589;53.636;10.012;2023-03-11T07:48:49;25.20;;;13.00;;
20857;SDS011;10589;53.636;10.012;2023-03-11T07:51:25;21.33;;;12.73;;
20857;SDS011;10589;53.636;10.012;2023-03-11T07:53:53;18.93;;;12.00;;
20857;SDS011;10589;53.636;10.012;2023-03-11T07:56:20;17.20;;;11.30;;
20857;SDS011;10589;53.636;10.012;2023-03-11T07:58:48;23.47;;;11.80;;
20857;SDS011;10589;53.636;10.012;2023-03-11T08:01:14;23.53;;;13.67;;
20857;SDS011;10589;53.636;10.012;2023-03-11T08:03:43;18.77;;;12.50;;
20857;SDS011;10589;53.636;10.012;2023-03-11T08:06:13;22.43;;;12.30;;
20857;SDS011;10589;53.636;10.012;2023-03-11T08:08:40;21.27;;;12.30;;
20857;SDS011;10589;53.636;10.012;2023-03-11T08:11:06;19.60;;;11.77;;
20857;SDS011;10589;53.636;10.012;2023-03-11T08:13:32;22.70;;;11.70;;
20857;SDS011;10589;53.636;10.012;2023-03-11T08:16:01;18.27;;;11.27;;
20857;SDS011;10589;53.636;10.012;2023-03-11T08:18:28;19.57;;;10.97;;
20857;SDS011;10589;53.636;10.012;2023-03-11T08:20:54;21.90;;;12.10;;
20857;SDS011;10589;53.636;10.012;2023-03-11T08:23:20;20.17;;;11.20;;
20857;SDS011;10589;53.636;10.012;2023-03-11T08:25:46;20.57;;;11.03;;
20857;SDS011;10589;53.636;10.012;2023-03-11T08:28:13;21.93;;;10.60;;
20857;SDS011;10589;53.636;10.012;2023-03-11T08:30:38;19.40;;;11.03;;
20857;SDS011;10589;53.636;10.012;2023-03-11T08:33:04;20.70;;;10.37;;
20857;SDS011;10589;53.636;10.012;2023-03-11T08:35:30;18.37;;;9.20;;
20857;SDS011;10589;53.636;10.012;2023-03-11T08:37:56;18.53;;;8.77;;
20857;SDS011;10589;53.636;10.012;2023-03-11T08:40:21;18.17;;;9.60;;
20857;SDS011;10589;53.636;10.012;2023-03-11T08:42:47;19.10;;;9.40;;
20857;SDS011;10589;53.636;10.012;2023-03-11T08:45:13;19.73;;;9.80;;
20857;SDS011;10589;53.636;10.012;2023-03-11T08:47:39;12.47;;;7.87;;
20857;SDS011;10589;53.636;10.012;2023-03-11T08:50:06;12.27;;;7.70;;
20857;SDS011;10589;53.636;10.012;2023-03-11T08:52:35;15.13;;;7.73;;
20857;SDS011;10589;53.636;10.012;2023-03-11T08:55:01;13.23;;;8.00;;
20857;SDS011;10589;53.636;10.012;2023-03-11T08:57:28;14.87;;;7.97;;
20857;SDS011;10589;53.636;10.012;2023-03-11T08:59:55;13.10;;;6.93;;
20857;SDS011;10589;53.636;10.012;2023-03-11T09:02:22;12.50;;;7.20;;
20857;SDS011;10589;53.636;10.012;2023-03-11T09:04:49;13.23;;;7.37;;
20857;SDS011;10589;53.636;10.012;2023-03-11T09:07:14;9.73;;;6.33;;
20857;SDS011;10589;53.636;10.012;2023-03-11T09:09:41;12.10;;;6.83;;
20857;SDS011;10589;53.636;10.012;2023-03-11T09:12:07;9.90;;;5.97;;
20857;SDS011;10589;53.636;10.012;2023-03-11T09:14:33;13.43;;;7.10;;
20857;SDS011;10589;53.636;10.012;2023-03-11T09:17:01;12.63;;;7.20;;
20857;SDS011;10589;53.636;10.012;2023-03-11T09:19:27;10.33;;;6.57;;
20857;SDS011;10589;53.636;10.012;2023-03-11T09:21:53;11.67;;;6.63;;
20857;SDS011;10589;53.636;10.012;2023-03-11T09:24:18;12.90;;;6.97;;
20857;SDS011;10589;53.636;10.012;2023-03-11T09:26:44;10.63;;;6.03;;
20857;SDS011;10589;53.636;10.012;2023-03-11T09:29:10;10.10;;;5.93;;
20857;SDS011;10589;53.636;10.012;2023-03-11T09:31:35;7.90;;;5.33;;
20857;SDS011;10589;53.636;10.012;2023-03-11T09:34:02;8.83;;;4.80;;
20857;SDS011;10589;53.636;10.012;2023-03-11T09:36:28;11.30;;;5.83;;
20857;SDS011;10589;53.636;10.012;2023-03-11T09:38:53;10.17;;;5.67;;
20857;SDS011;10589;53.636;10.012;2023-03-11T09:41:27;7.13;;;4.67;;
20857;SDS011;10589;53.636;10.012;2023-03-11T09:54:50;8.40;;;4.00;;
20857;SDS011;10589;53.636;10.012;2023-03-11T09:57:21;9.13;;;4.23;;
20857;SDS011;10589;53.636;10.012;2023-03-11T09:59:50;10.00;;;4.00;;
20857;SDS011;10589;53.636;10.012;2023-03-11T10:02:17;8.87;;;4.57;;
20857;SDS011;10589;53.636;10.012;2023-03-11T10:05:02;7.10;;;3.60;;
20857;SDS011;10589;53.636;10.012;2023-03-11T10:07:35;8.57;;;4.07;;
20857;SDS011;10589;53.636;10.012;2023-03-11T10:10:04;6.00;;;3.40;;
20857;SDS011;10589;53.636;10.012;2023-03-11T10:15:23;5.90;;;3.43;;
20857;SDS011;10589;53.636;10.012;2023-03-11T10:21:05;6.67;;;3.63;;
20857;SDS011;10589;53.636;10.012;2023-03-11T10:26:54;7.00;;;3.90;;
20857;SDS011;10589;53.636;10.012;2023-03-11T10:29:27;6.83;;;3.87;;
20857;SDS011;10589;53.636;10.012;2023-03-11T10:31:59;10.47;;;3.97;;
20857;SDS011;10589;53.636;10.012;2023-03-11T10:35:39;7.37;;;4.07;;
20857;SDS011;10589;53.636;10.012;2023-03-11T10:37:58;5.03;;;3.37;;
20857;SDS011;10589;53.636;10.012;2023-03-11T10:40:35;5.57;;;3.33;;
20857;SDS011;10589;53.636;10.012;2023-03-11T10:43:15;6.20;;;3.00;;
20857;SDS011;10589;53.636;10.012;2023-03-11T10:45:43;6.80;;;3.00;;
20857;SDS011;10589;53.636;10.012;2023-03-11T10:48:13;7.20;;;2.90;;
20857;SDS011;10589;53.636;10.012;2023-03-11T10:53:16;7.27;;;2.80;;
20857;SDS011;10589;53.636;10.012;2023-03-11T10:55:45;4.27;;;2.53;;
20857;SDS011;10589;53.636;10.012;2023-03-11T10:58:16;4.60;;;3.00;;
20857;SDS011;10589;53.636;10.012;2023-03-11T11:00:44;6.07;;;2.50;;
20857;SDS011;10589;53.636;10.012;2023-03-11T11:03:20;10.33;;;2.73;;
20857;SDS011;10589;53.636;10.012;2023-03-11T11:05:58;5.53;;;2.63;;
20857;SDS011;10589;53.636;10.012;2023-03-11T11:08:27;6.73;;;2.90;;
20857;SDS011;10589;53.636;10.012;2023-03-11T11:10:56;10.63;;;3.30;;
20857;SDS011;10589;53.636;10.012;2023-03-11T11:13:27;6.67;;;3.13;;
20857;SDS011;10589;53.636;10.012;2023-03-11T11:15:59;6.27;;;2.77;;
20857;SDS011;10589;53.636;10.012;2023-03-11T11:18:43;4.40;;;2.87;;
20857;SDS011;10589;53.636;10.012;2023-03-11T11:21:53;5.87;;;2.70;;
20857;SDS011;10589;53.636;10.012;2023-03-11T11:26:37;9.67;;;3.20;;
20857;SDS011;10589;53.636;10.012;2023-03-11T11:29:04;9.07;;;2.80;;
20857;SDS011;10589;53.636;10.012;2023-03-11T11:31:30;6.37;;;3.53;;
20857;SDS011;10589;53.636;10.012;2023-03-11T11:33:55;8.80;;;2.97;;
20857;SDS011;10589;53.636;10.012;2023-03-11T11:36:26;4.27;;;3.00;;
20857;SDS011;10589;53.636;10.012;2023-03-11T11:38:54;5.57;;;2.80;;
20857;SDS011;10589;53.636;10.012;2023-03-11T11:41:22;6.03;;;2.60;;
20857;SDS011;10589;53.636;10.012;2023-03-11T11:43:50;5.73;;;3.10;;
20857;SDS011;10589;53.636;10.012;2023-03-11T11:46:20;9.73;;;2.93;;
20857;SDS011;10589;53.636;10.012;2023-03-11T11:49:06;8.40;;;2.43;;
20857;SDS011;10589;53.636;10.012;2023-03-11T11:51:58;7.40;;;2.20;;
20857;SDS011;10589;53.636;10.012;2023-03-11T11:54:52;5.77;;;2.30;;
20857;SDS011;10589;53.636;10.012;2023-03-11T11:57:26;5.57;;;2.00;;
20857;SDS011;10589;53.636;10.012;2023-03-11T11:59:52;8.07;;;1.90;;
20857;SDS011;10589;53.636;10.012;2023-03-11T12:05:11;3.73;;;1.70;;
20857;SDS011;10589;53.636;10.012;2023-03-11T12:07:59;3.20;;;1.40;;
20857;SDS011;10589;53.636;10.012;2023-03-11T12:11:22;4.87;;;1.13;;
20857;SDS011;10589;53.636;10.012;2023-03-11T12:16:51;4.63;;;0.93;;
20857;SDS011;10589;53.636;10.012;2023-03-11T12:19:49;5.73;;;0.90;;
20857;SDS011;10589;53.636;10.012;2023-03-11T12:31:16;4.23;;;0.93;;
20857;SDS011;10589;53.636;10.012;2023-03-11T12:33:30;1.40;;;0.73;;
20857;SDS011;10589;53.636;10.012;2023-03-11T12:36:31;1.83;;;0.60;;
20857;SDS011;10589;53.636;10.012;2023-03-11T12:39:26;3.73;;;0.63;;
20857;SDS011;10589;53.636;10.012;2023-03-11T12:44:42;1.40;;;0.50;;
20857;SDS011;10589;53.636;10.012;2023-03-11T12:49:44;4.03;;;0.80;;
20857;SDS011;10589;53.636;10.012;2023-03-11T12:54:46;8.93;;;1.00;;
20857;SDS011;10589;53.636;10.012;2023-03-11T12:57:35;4.17;;;0.70;;
20857;SDS011;10589;53.636;10.012;2023-03-11T13:00:20;7.13;;;0.77;;
20857;SDS011;10589;53.636;10.012;2023-03-11T13:08:21;2.93;;;1.00;;
20857;SDS011;10589;53.636;10.012;2023-03-11T13:10:51;5.17;;;1.00;;
20857;SDS011;10589;53.636;10.012;2023-03-11T13:15:52;2.70;;;0.50;;
20857;SDS011;10589;53.636;10.012;2023-03-11T13:18:22;5.47;;;0.80;;
20857;SDS011;10589;53.636;10.012;2023-03-11T13:20:58;5.07;;;0.80;;
20857;SDS011;10589;53.636;10.012;2023-03-11T13:33:54;2.77;;;0.50;;
20857;SDS011;10589;53.636;10.012;2023-03-11T13:36:27;2.87;;;0.50;;
20857;SDS011;10589;53.636;10.012;2023-03-11T13:41:55;1.80;;;0.40;;
20857;SDS011;10589;53.636;10.012;2023-03-11T13:44:36;1.37;;;0.40;;
20857;SDS011;10589;53.636;10.012;2023-03-11T13:47:15;1.37;;;0.50;;
20857;SDS011;10589;53.636;10.012;2023-03-11T13:49:43;3.33;;;0.50;;
20857;SDS011;10589;53.636;10.012;2023-03-11T13:55:06;4.23;;;0.77;;
20857;SDS011;10589;53.636;10.012;2023-03-11T13:57:39;3.47;;;0.60;;
20857;SDS011;10589;53.636;10.012;2023-03-11T14:00:18;3.20;;;0.70;;
20857;SDS011;10589;53.636;10.012;2023-03-11T14:03:01;2.20;;;0.40;;
20857;SDS011;10589;53.636;10.012;2023-03-11T14:05:29;2.93;;;0.67;;
20857;SDS011;10589;53.636;10.012;2023-03-11T14:08:15;2.10;;;0.40;;
20857;SDS011;10589;53.636;10.012;2023-03-11T14:10:59;2.40;;;0.50;;
20857;SDS011;10589;53.636;10.012;2023-03-11T14:13:32;2.50;;;0.50;;
20857;SDS011;10589;53.636;10.012;2023-03-11T14:16:04;2.17;;;0.40;;
20857;SDS011;10589;53.636;10.012;2023-03-11T14:18:35;4.70;;;0.50;;
20857;SDS011;10589;53.636;10.012;2023-03-11T14:21:10;1.53;;;0.70;;
20857;SDS011;10589;53.636;10.012;2023-03-11T14:23:39;1.83;;;0.40;;
20857;SDS011;10589;53.636;10.012;2023-03-11T14:26:17;2.30;;;0.50;;
20857;SDS011;10589;53.636;10.012;2023-03-11T14:28:52;3.63;;;0.50;;
20857;SDS011;10589;53.636;10.012;2023-03-11T14:31:29;2.37;;;0.57;;
20857;SDS011;10589;53.636;10.012;2023-03-11T14:34:15;1.80;;;0.47;;
20857;SDS011;10589;53.636;10.012;2023-03-11T14:36:44;4.67;;;0.57;;
20857;SDS011;10589;53.636;10.012;2023-03-11T14:41:52;3.73;;;0.50;;
20857;SDS011;10589;53.636;10.012;2023-03-11T14:44:22;3.43;;;0.60;;
20857;SDS011;10589;53.636;10.012;2023-03-11T14:46:50;1.27;;;0.60;;
20857;SDS011;10589;53.636;10.012;2023-03-11T14:49:20;4.00;;;0.43;;
20857;SDS011;10589;53.636;10.012;2023-03-11T14:51:53;3.67;;;0.50;;
20857;SDS011;10589;53.636;10.012;2023-03-11T14:54:26;5.63;;;0.53;;
20857;SDS011;10589;53.636;10.012;2023-03-11T14:57:17;4.10;;;0.70;;
20857;SDS011;10589;53.636;10.012;2023-03-11T14:59:47;1.50;;;0.50;;
20857;SDS011;10589;53.636;10.012;2023-03-11T15:05:08;4.83;;;0.70;;
20857;SDS011;10589;53.636;10.012;2023-03-11T15:07:56;1.73;;;0.63;;
20857;SDS011;10589;53.636;10.012;2023-03-11T15:10:25;3.70;;;0.77;;
20857;SDS011;10589;53.636;10.012;2023-03-11T15:12:51;2.73;;;0.70;;
20857;SDS011;10589;53.636;10.012;2023-03-11T15:15:32;4.60;;;0.70;;
20857;SDS011;10589;53.636;10.012;2023-03-11T15:17:58;4.63;;;0.80;;
20857;SDS011;10589;53.636;10.012;2023-03-11T15:20:26;5.87;;;1.10;;
20857;SDS011;10589;53.636;10.012;2023-03-11T15:23:01;2.03;;;0.70;;
20857;SDS011;10589;53.636;10.012;2023-03-11T15:25:30;2.93;;;0.70;;
20857;SDS011;10589;53.636;10.012;2023-03-11T15:27:58;2.13;;;0.80;;
20857;SDS011;10589;53.636;10.012;2023-03-11T15:30:38;2.80;;;0.60;;
20857;SDS011;10589;53.636;10.012;2023-03-11T15:33:18;1.50;;;0.60;;
20857;SDS011;10589;53.636;10.012;2023-03-11T15:35:46;2.27;;;0.80;;
20857;SDS011;10589;53.636;10.012;2023-03-11T15:38:23;5.27;;;0.70;;
20857;SDS011;10589;53.636;10.012;2023-03-11T15:43:31;6.40;;;1.27;;
20857;SDS011;10589;53.636;10.012;2023-03-11T15:45:59;4.53;;;1.03;;
20857;SDS011;10589;53.636;10.012;2023-03-11T15:48:26;5.63;;;1.17;;
20857;SDS011;10589;53.636;10.012;2023-03-11T15:50:54;2.87;;;0.70;;
20857;SDS011;10589;53.636;10.012;2023-03-11T15:53:22;0.90;;;0.50;;
20857;SDS011;10589;53.636;10.012;2023-03-11T15:55:49;3.40;;;0.77;;
20857;SDS011;10589;53.636;10.012;2023-03-11T15:58:17;2.23;;;0.60;;
20857;SDS011;10589;53.636;10.012;2023-03-11T16:00:53;1.67;;;0.90;;
20857;SDS011;10589;53.636;10.012;2023-03-11T16:03:20;4.43;;;1.27;;
20857;SDS011;10589;53.636;10.012;2023-03-11T16:05:47;5.90;;;1.17;;
20857;SDS011;10589;53.636;10.012;2023-03-11T16:08:13;4.60;;;1.13;;
20857;SDS011;10589;53.636;10.012;2023-03-11T16:10:39;5.03;;;1.27;;
20857;SDS011;10589;53.636;10.012;2023-03-11T16:13:05;4.57;;;1.50;;
20857;SDS011;10589;53.636;10.012;2023-03-11T16:15:35;6.93;;;1.70;;
20857;SDS011;10589;53.636;10.012;2023-03-11T16:18:03;6.37;;;1.40;;
20857;SDS011;10589;53.636;10.012;2023-03-11T16:20:41;4.47;;;1.57;;
20857;SDS011;10589;53.636;10.012;2023-03-11T16:23:11;5.80;;;1.73;;
20857;SDS011;10589;53.636;10.012;2023-03-11T16:25:43;4.53;;;1.60;;
20857;SDS011;10589;53.636;10.012;2023-03-11T16:28:10;5.10;;;1.70;;
20857;SDS011;10589;53.636;10.012;2023-03-11T16:30:38;8.37;;;1.90;;
20857;SDS011;10589;53.636;10.012;2023-03-11T16:33:04;9.67;;;1.93;;
20857;SDS011;10589;53.636;10.012;2023-03-11T16:35:29;5.83;;;2.20;;
20857;SDS011;10589;53.636;10.012;2023-03-11T16:37:55;4.23;;;1.80;;
20857;SDS011;10589;53.636;10.012;2023-03-11T16:40:22;4.50;;;1.90;;
20857;SDS011;10589;53.636;10.012;2023-03-11T16:43:05;4.87;;;2.27;;
20857;SDS011;10589;53.636;10.012;2023-03-11T16:45:33;8.67;;;2.60;;
20857;SDS011;10589;53.636;10.012;2023-03-11T16:47:59;6.73;;;2.73;;
20857;SDS011;10589;53.636;10.012;2023-03-11T16:50:24;8.00;;;2.63;;
20857;SDS011;10589;53.636;10.012;2023-03-11T16:52:51;10.60;;;2.17;;
20857;SDS011;10589;53.636;10.012;2023-03-11T16:55:18;6.83;;;3.00;;
20857;SDS011;10589;53.636;10.012;2023-03-11T16:57:44;10.03;;;2.53;;
20857;SDS011;10589;53.636;10.012;2023-03-11T17:00:10;8.17;;;3.00;;
20857;SDS011;10589;53.636;10.012;2023-03-11T17:02:37;10.73;;;2.60;;
20857;SDS011;10589;53.636;10.012;2023-03-11T17:05:03;9.03;;;2.47;;
20857;SDS011;10589;53.636;10.012;2023-03-11T17:07:30;11.07;;;2.63;;
20857;SDS011;10589;53.636;10.012;2023-03-11T17:09:56;10.53;;;2.67;;
20857;SDS011;10589;53.636;10.012;2023-03-11T17:12:23;5.57;;;2.77;;
20857;SDS011;10589;53.636;10.012;2023-03-11T17:14:50;9.00;;;2.90;;
20857;SDS011;10589;53.636;10.012;2023-03-11T17:17:16;7.67;;;3.37;;
20857;SDS011;10589;53.636;10.012;2023-03-11T17:19:42;8.13;;;3.13;;
20857;SDS011;10589;53.636;10.012;2023-03-11T17:22:08;13.10;;;3.47;;
20857;SDS011;10589;53.636;10.012;2023-03-11T17:24:34;9.07;;;3.43;;
20857;SDS011;10589;53.636;10.012;2023-03-11T17:27:00;10.17;;;3.80;;
20857;SDS011;10589;53.636;10.012;2023-03-11T17:29:27;8.40;;;3.33;;
20857;SDS011;10589;53.636;10.012;2023-03-11T17:31:52;8.83;;;3.80;;
20857;SDS011;10589;53.636;10.012;2023-03-11T17:34:18;14.30;;;4.20;;
20857;SDS011;10589;53.636;10.012;2023-03-11T17:36:44;7.73;;;3.53;;
20857;SDS011;10589;53.636;10.012;2023-03-11T17:39:10;9.37;;;3.13;;
20857;SDS011;10589;53.636;10.012;2023-03-11T17:41:35;6.97;;;3.70;;
20857;SDS011;10589;53.636;10.012;2023-03-11T17:44:01;8.07;;;3.87;;
20857;SDS011;10589;53.636;10.012;2023-03-11T17:46:26;6.23;;;3.40;;
20857;SDS011;10589;53.636;10.012;2023-03-11T17:48:52;7.37;;;3.80;;
20857;SDS011;10589;53.636;10.012;2023-03-11T17:51:19;10.23;;;4.03;;
20857;SDS011;10589;53.636;10.012;2023-03-11T17:53:46;6.20;;;3.43;;
20857;SDS011;10589;53.636;10.012;2023-03-11T17:56:14;12.07;;;3.30;;
20857;SDS011;10589;53.636;10.012;2023-03-11T17:58:42;13.60;;;3.90;;
20857;SDS011;10589;53.636;10.012;2023-03-11T18:01:10;10.47;;;3.67;;
20857;SDS011;10589;53.636;10.012;2023-03-11T18:03:38;7.07;;;3.47;;
20857;SDS011;10589;53.636;10.012;2023-03-11T18:06:04;8.40;;;3.83;;
20857;SDS011;10589;53.636;10.012;2023-03-11T18:08:31;10.27;;;3.27;;
20857;SDS011;10589;53.636;10.012;2023-03-11T18:10:58;9.53;;;3.50;;
20857;SDS011;10589;53.636;10.012;2023-03-11T18:13:44;8.37;;;3.63;;
20857;SDS011;10589;53.636;10.012;2023-03-11T18:16:12;9.87;;;3.27;;
20857;SDS011;10589;53.636;10.012;2023-03-11T18:18:40;5.97;;;3.40;;
20857;SDS011;10589;53.636;10.012;2023-03-11T18:21:09;7.33;;;3.53;;
20857;SDS011;10589;53.636;10.012;2023-03-11T18:23:36;9.40;;;3.50;;
20857;SDS011;10589;53.636;10.012;2023-03-11T18:26:04;11.53;;;3.30;;
20857;SDS011;10589;53.636;10.012;2023-03-11T18:28:31;7.20;;;3.30;;
20857;SDS011;10589;53.636;10.012;2023-03-11T18:31:03;7.97;;;3.03;;
20857;SDS011;10589;53.636;10.012;2023-03-11T18:33:30;11.87;;;3.37;;
20857;SDS011;10589;53.636;10.012;2023-03-11T18:35:56;7.27;;;3.37;;
20857;SDS011;10589;53.636;10.012;2023-03-11T18:38:22;5.97;;;2.83;;
20857;SDS011;10589;53.636;10.012;2023-03-11T18:40:54;12.60;;;3.27;;
20857;SDS011;10589;53.636;10.012;2023-03-11T18:43:20;7.50;;;3.47;;
20857;SDS011;10589;53.636;10.012;2023-03-11T18:45:46;5.97;;;3.40;;
20857;SDS011;10589;53.636;10.012;2023-03-11T18:48:11;6.07;;;3.50;;
20857;SDS011;10589;53.636;10.012;2023-03-11T18:50:37;5.70;;;2.77;;
20857;SDS011;10589;53.636;10.012;2023-03-11T18:53:03;6.90;;;3.07;;
20857;SDS011;10589;53.636;10.012;2023-03-11T18:55:28;8.07;;;3.40;;
20857;SDS011;10589;53.636;10.012;2023-03-11T18:57:54;7.97;;;3.20;;
20857;SDS011;10589;53.636;10.012;2023-03-11T19:00:19;5.13;;;2.70;;
20857;SDS011;10589;53.636;10.012;2023-03-11T19:02:51;6.17;;;3.10;;
20857;SDS011;10589;53.636;10.012;2023-03-11T19:05:17;9.03;;;2.77;;
20857;SDS011;10589;53.636;10.012;2023-03-11T19:07:43;15.33;;;3.43;;
20857;SDS011;10589;53.636;10.012;2023-03-11T19:10:09;5.60;;;2.60;;
20857;SDS011;10589;53.636;10.012;2023-03-11T19:12:36;5.10;;;2.63;;
20857;SDS011;10589;53.636;10.012;2023-03-11T19:15:03;4.93;;;3.13;;
20857;SDS011;10589;53.636;10.012;2023-03-11T19:17:29;11.77;;;2.90;;
20857;SDS011;10589;53.636;10.012;2023-03-11T19:19:55;3.97;;;2.27;;
20857;SDS011;10589;53.636;10.012;2023-03-11T19:22:20;5.60;;;2.17;;
20857;SDS011;10589;53.636;10.012;2023-03-11T19:24:46;4.37;;;2.70;;
20857;SDS011;10589;53.636;10.012;2023-03-11T19:27:11;7.77;;;2.70;;
20857;SDS011;10589;53.636;10.012;2023-03-11T19:29:37;4.80;;;2.77;;
20857;SDS011;10589;53.636;10.012;2023-03-11T19:32:02;7.50;;;3.13;;
20857;SDS011;10589;53.636;10.012;2023-03-11T19:34:28;6.23;;;2.30;;
20857;SDS011;10589;53.636;10.012;2023-03-11T19:36:54;3.70;;;2.20;;
20857;SDS011;10589;53.636;10.012;2023-03-11T19:39:19;4.50;;;2.33;;
20857;SDS011;10589;53.636;10.012;2023-03-11T19:41:45;8.13;;;2.10;;
20857;SDS011;10589;53.636;10.012;2023-03-11T19:44:10;6.77;;;2.20;;
20857;SDS011;10589;53.636;10.012;2023-03-11T19:46:36;4.97;;;2.13;;
20857;SDS011;10589;53.636;10.012;2023-03-11T19:49:02;7.43;;;2.40;;
20857;SDS011;10589;53.636;10.012;2023-03-11T19:51:28;7.63;;;3.20;;
20857;SDS011;10589;53.636;10.012;2023-03-11T19:53:54;9.27;;;2.27;;
20857;SDS011;10589;53.636;10.012;2023-03-11T19:56:19;5.27;;;2.27;;
20857;SDS011;10589;53.636;10.012;2023-03-11T19:58:45;6.57;;;2.47;;
20857;SDS011;10589;53.636;10.012;2023-03-11T20:01:17;5.57;;;2.67;;
20857;SDS011;10589;53.636;10.012;2023-03-11T20:03:44;7.20;;;2.73;;
20857;SDS011;10589;53.636;10.012;2023-03-11T20:06:11;9.30;;;2.70;;
20857;SDS011;10589;53.636;10.012;2023-03-11T20:08:40;5.63;;;2.30;;
20857;SDS011;10589;53.636;10.012;2023-03-11T20:11:06;6.83;;;3.17;;
20857;SDS011;10589;53.636;10.012;2023-03-11T20:13:33;2.70;;;1.63;;
20857;SDS011;10589;53.636;10.012;2023-03-11T20:16:06;4.47;;;2.40;;
20857;SDS011;10589;53.636;10.012;2023-03-11T20:18:33;7.57;;;2.40;;
20857;SDS011;10589;53.636;10.012;2023-03-11T20:21:02;4.33;;;2.07;;
20857;SDS011;10589;53.636;10.012;2023-03-11T20:23:33;3.67;;;2.13;;
20857;SDS011;10589;53.636;10.012;2023-03-11T20:26:02;5.03;;;2.23;;
20857;SDS011;10589;53.636;10.012;2023-03-11T20:28:30;8.57;;;2.57;;
20857;SDS011;10589;53.636;10.012;2023-03-11T20:30:55;5.70;;;2.27;;
20857;SDS011;10589;53.636;10.012;2023-03-11T20:33:21;5.20;;;2.43;;
20857;SDS011;10589;53.636;10.012;2023-03-11T20:35:46;3.93;;;2.20;;
20857;SDS011;10589;53.636;10.012;2023-03-11T20:38:12;4.17;;;1.87;;
20857;SDS011;10589;53.636;10.012;2023-03-11T20:40:38;3.30;;;2.00;;
20857;SDS011;10589;53.636;10.012;2023-03-11T20:43:03;5.43;;;2.33;;